sensor_id;sensor_type;location;lat;lon;timestamp;temperature;humidity
10294;DHT22;5192;50.328;7.610;2023-07-29T00:01:58;19.10;99.90
10294;DHT22;5192;50.328;7.610;2023-07-29T00:04:26;19.10;99.90
10294;DHT22;5192;50.328;7.610;2023-07-29T00:06:53;19.10;99.90
10294;DHT22;5192;50.328;7.610;2023-07-29T00:09:22;19.10;99.90
10294;DHT22;5192;50.328;7.610;2023-07-29T00:11:47;19.00;99.90
10294;DHT22;5192;50.328;7.610;2023-07-29T00:14:14;19.10;99.90
10294;DHT22;5192;50.328;7.610;2023-07-29T00:16:40;19.10;99.90
10294;DHT22;5192;50.328;7.610;2023-07-29T00:19:07;19.10;99.90
10294;DHT22;5192;50.328;7.610;2023-07-29T00:21:33;19.20;99.90
10294;DHT22;5192;50.328;7.610;2023-07-29T00:24:02;19.20;99.90
10294;DHT22;5192;50.328;7.610;2023-07-29T00:26:30;19.30;99.90
10294;DHT22;5192;50.328;7.610;2023-07-29T00:28:57;19.30;99.90
10294;DHT22;5192;50.328;7.610;2023-07-29T00:31:22;19.30;99.90
10294;DHT22;5192;50.328;7.610;2023-07-29T00:33:48;19.40;99.90
10294;DHT22;5192;50.328;7.610;2023-07-29T00:36:16;19.40;99.90
10294;DHT22;5192;50.328;7.610;2023-07-29T00:38:42;19.40;99.90
10294;DHT22;5192;50.328;7.610;2023-07-29T00:41:11;19.40;99.90
10294;DHT22;5192;50.328;7.610;2023-07-29T00:43:41;19.30;99.90
10294;DHT22;5192;50.328;7.610;2023-07-29T00:46:10;19.30;99.90
10294;DHT22;5192;50.328;7.610;2023-07-29T00:48:40;19.30;99.90
10294;DHT22;5192;50.328;7.610;2023-07-29T00:51:08;19.30;99.90
10294;DHT22;5192;50.328;7.610;2023-07-29T00:53:35;19.20;99.90
10294;DHT22;5192;50.328;7.610;2023-07-29T00:56:03;19.20;99.90
10294;DHT22;5192;50.328;7.610;2023-07-29T00:58:29;19.10;99.90
10294;DHT22;5192;50.328;7.610;2023-07-29T01:00:57;19.00;99.90
10294;DHT22;5192;50.328;7.610;2023-07-29T01:03:24;18.90;99.90
10294;DHT22;5192;50.328;7.610;2023-07-29T01:06:19;18.90;99.90
10294;DHT22;5192;50.328;7.610;2023-07-29T01:12:19;18.80;99.90
10294;DHT22;5192;50.328;7.610;2023-07-29T01:17:46;18.80;99.90
10294;DHT22;5192;50.328;7.610;2023-07-29T01:20:16;18.80;99.90
10294;DHT22;5192;50.328;7.610;2023-07-29T01:22:44;18.80;99.90
10294;DHT22;5192;50.328;7.610;2023-07-29T01:25:09;18.90;99.90
10294;DHT22;5192;50.328;7.610;2023-07-29T01:27:36;18.90;99.90
10294;DHT22;5192;50.328;7.610;2023-07-29T01:30:04;18.90;99.90
10294;DHT22;5192;50.328;7.610;2023-07-29T01:35:50;18.90;99.90
10294;DHT22;5192;50.328;7.610;2023-07-29T01:38:38;18.90;99.90
10294;DHT22;5192;50.328;7.610;2023-07-29T01:41:08;18.90;99.90
10294;DHT22;5192;50.328;7.610;2023-07-29T01:43:34;19.00;99.90
10294;DHT22;5192;50.328;7.610;2023-07-29T01:46:13;19.00;99.90
10294;DHT22;5192;50.328;7.610;2023-07-29T01:48:41;19.00;99.90
10294;DHT22;5192;50.328;7.610;2023-07-29T01:51:11;19.10;99.90
10294;DHT22;5192;50.328;7.610;2023-07-29T01:53:38;19.10;99.90
10294;DHT22;5192;50.328;7.610;2023-07-29T01:56:07;19.10;99.90
10294;DHT22;5192;50.328;7.610;2023-07-29T01:58:34;19.10;99.90
10294;DHT22;5192;50.328;7.610;2023-07-29T02:01:00;19.10;99.90
10294;DHT22;5192;50.328;7.610;2023-07-29T02:03:28;19.10;99.90
10294;DHT22;5192;50.328;7.610;2023-07-29T02:05:57;19.00;99.90
10294;DHT22;5192;50.328;7.610;2023-07-29T02:08:22;19.00;99.90
10294;DHT22;5192;50.328;7.610;2023-07-29T02:10:49;19.00;99.90
10294;DHT22;5192;50.328;7.610;2023-07-29T02:13:17;19.00;99.90
10294;DHT22;5192;50.328;7.610;2023-07-29T02:15:44;18.90;99.90
10294;DHT22;5192;50.328;7.610;2023-07-29T02:18:12;18.90;99.90
10294;DHT22;5192;50.328;7.610;2023-07-29T02:20:41;18.90;99.90
10294;DHT22;5192;50.328;7.610;2023-07-29T02:23:13;19.00;99.90
10294;DHT22;5192;50.328;7.610;2023-07-29T02:25:40;18.90;99.90
10294;DHT22;5192;50.328;7.610;2023-07-29T02:28:07;18.90;99.90
10294;DHT22;5192;50.328;7.610;2023-07-29T02:30:36;18.80;99.90
10294;DHT22;5192;50.328;7.610;2023-07-29T02:33:02;18.90;99.90
10294;DHT22;5192;50.328;7.610;2023-07-29T02:35:30;18.90;99.90
10294;DHT22;5192;50.328;7.610;2023-07-29T02:37:58;18.90;99.90
10294;DHT22;5192;50.328;7.610;2023-07-29T02:40:25;18.90;99.90
10294;DHT22;5192;50.328;7.610;2023-07-29T02:42:55;18.80;99.90
10294;DHT22;5192;50.328;7.610;2023-07-29T02:45:22;18.90;99.90
10294;DHT22;5192;50.328;7.610;2023-07-29T02:47:48;18.90;99.90
10294;DHT22;5192;50.328;7.610;2023-07-29T02:50:18;18.90;99.90
10294;DHT22;5192;50.328;7.610;2023-07-29T02:52:44;18.90;99.90
10294;DHT22;5192;50.328;7.610;2023-07-29T02:55:11;18.90;99.90
10294;DHT22;5192;50.328;7.610;2023-07-29T02:57:38;18.80;99.90
10294;DHT22;5192;50.328;7.610;2023-07-29T03:00:07;18.80;99.90
10294;DHT22;5192;50.328;7.610;2023-07-29T03:02:35;18.80;99.90
10294;DHT22;5192;50.328;7.610;2023-07-29T03:05:03;18.80;99.90
10294;DHT22;5192;50.328;7.610;2023-07-29T03:07:30;18.80;99.90
10294;DHT22;5192;50.328;7.610;2023-07-29T03:09:57;18.80;99.90
10294;DHT22;5192;50.328;7.610;2023-07-29T03:12:23;18.80;99.90
10294;DHT22;5192;50.328;7.610;2023-07-29T03:14:52;18.80;99.90
10294;DHT22;5192;50.328;7.610;2023-07-29T03:17:18;18.80;99.90
10294;DHT22;5192;50.328;7.610;2023-07-29T03:19:46;18.80;99.90
10294;DHT22;5192;50.328;7.610;2023-07-29T03:22:14;18.90;99.90
10294;DHT22;5192;50.328;7.610;2023-07-29T03:24:41;18.80;99.90
10294;DHT22;5192;50.328;7.610;2023-07-29T03:27:08;18.80;99.90
10294;DHT22;5192;50.328;7.610;2023-07-29T03:29:36;18.80;99.90
10294;DHT22;5192;50.328;7.610;2023-07-29T03:32:04;18.70;99.90
10294;DHT22;5192;50.328;7.610;2023-07-29T03:34:31;18.70;99.90
10294;DHT22;5192;50.328;7.610;2023-07-29T03:37:00;18.70;99.90
10294;DHT22;5192;50.328;7.610;2023-07-29T03:39:26;18.70;99.90
10294;DHT22;5192;50.328;7.610;2023-07-29T03:41:53;18.70;99.90
10294;DHT22;5192;50.328;7.610;2023-07-29T03:44:19;18.70;99.90
10294;DHT22;5192;50.328;7.610;2023-07-29T03:46:46;18.70;99.90
10294;DHT22;5192;50.328;7.610;2023-07-29T03:49:13;18.70;99.90
10294;DHT22;5192;50.328;7.610;2023-07-29T03:51:42;18.70;99.90
10294;DHT22;5192;50.328;7.610;2023-07-29T03:54:09;18.70;99.90
10294;DHT22;5192;50.328;7.610;2023-07-29T03:56:37;18.70;99.90
10294;DHT22;5192;50.328;7.610;2023-07-29T03:59:07;18.70;99.90
10294;DHT22;5192;50.328;7.610;2023-07-29T04:01:34;18.70;99.90
10294;DHT22;5192;50.328;7.610;2023-07-29T04:04:00;18.70;99.90
10294;DHT22;5192;50.328;7.610;2023-07-29T04:06:28;18.70;99.90
10294;DHT22;5192;50.328;7.610;2023-07-29T04:08:55;18.70;99.90
10294;DHT22;5192;50.328;7.610;2023-07-29T04:11:23;18.70;99.90
10294;DHT22;5192;50.328;7.610;2023-07-29T04:13:50;18.70;99.90
10294;DHT22;5192;50.328;7.610;2023-07-29T04:16:17;18.70;99.90
10294;DHT22;5192;50.328;7.610;2023-07-29T04:18:45;18.70;99.90
10294;DHT22;5192;50.328;7.610;2023-07-29T04:21:15;18.70;99.90
10294;DHT22;5192;50.328;7.610;2023-07-29T04:23:43;18.80;99.90
10294;DHT22;5192;50.328;7.610;2023-07-29T04:26:10;18.80;99.90
10294;DHT22;5192;50.328;7.610;2023-07-29T04:28:37;18.80;99.90
10294;DHT22;5192;50.328;7.610;2023-07-29T04:31:03;18.80;99.90
10294;DHT22;5192;50.328;7.610;2023-07-29T04:33:31;18.80;99.90
10294;DHT22;5192;50.328;7.610;2023-07-29T04:35:58;18.90;99.90
10294;DHT22;5192;50.328;7.610;2023-07-29T04:38:37;19.00;99.90
10294;DHT22;5192;50.328;7.610;2023-07-29T04:41:04;19.10;99.90
10294;DHT22;5192;50.328;7.610;2023-07-29T04:43:34;19.20;99.90
10294;DHT22;5192;50.328;7.610;2023-07-29T04:46:01;19.30;99.90
10294;DHT22;5192;50.328;7.610;2023-07-29T04:48:28;19.30;99.90
10294;DHT22;5192;50.328;7.610;2023-07-29T04:50:56;19.40;99.90
10294;DHT22;5192;50.328;7.610;2023-07-29T04:53:24;19.40;99.90
10294;DHT22;5192;50.328;7.610;2023-07-29T04:55:51;19.50;99.90
10294;DHT22;5192;50.328;7.610;2023-07-29T04:58:18;19.50;99.90
10294;DHT22;5192;50.328;7.610;2023-07-29T05:00:50;19.60;99.90
10294;DHT22;5192;50.328;7.610;2023-07-29T05:03:18;19.60;99.90
10294;DHT22;5192;50.328;7.610;2023-07-29T05:05:44;19.60;99.90
10294;DHT22;5192;50.328;7.610;2023-07-29T05:08:12;19.60;99.90
10294;DHT22;5192;50.328;7.610;2023-07-29T05:10:39;19.60;99.90
10294;DHT22;5192;50.328;7.610;2023-07-29T05:13:07;19.50;99.90
10294;DHT22;5192;50.328;7.610;2023-07-29T05:15:32;19.50;99.90
10294;DHT22;5192;50.328;7.610;2023-07-29T05:18:00;19.50;99.90
10294;DHT22;5192;50.328;7.610;2023-07-29T05:20:27;19.40;99.90
10294;DHT22;5192;50.328;7.610;2023-07-29T05:22:53;19.40;99.90
10294;DHT22;5192;50.328;7.610;2023-07-29T05:25:18;19.40;99.90
10294;DHT22;5192;50.328;7.610;2023-07-29T05:27:46;19.40;99.90
10294;DHT22;5192;50.328;7.610;2023-07-29T05:30:14;19.40;99.90
10294;DHT22;5192;50.328;7.610;2023-07-29T05:32:41;19.30;99.90
10294;DHT22;5192;50.328;7.610;2023-07-29T05:35:06;19.30;99.90
10294;DHT22;5192;50.328;7.610;2023-07-29T05:37:34;19.20;99.90
10294;DHT22;5192;50.328;7.610;2023-07-29T05:40:01;19.20;99.90
10294;DHT22;5192;50.328;7.610;2023-07-29T05:42:28;19.20;99.90
10294;DHT22;5192;50.328;7.610;2023-07-29T05:44:55;19.20;99.90
10294;DHT22;5192;50.328;7.610;2023-07-29T05:47:22;19.10;99.90
10294;DHT22;5192;50.328;7.610;2023-07-29T05:49:48;19.10;99.90
10294;DHT22;5192;50.328;7.610;2023-07-29T05:52:15;19.10;99.90
10294;DHT22;5192;50.328;7.610;2023-07-29T05:54:41;19.10;99.90
10294;DHT22;5192;50.328;7.610;2023-07-29T05:57:12;19.10;99.90
10294;DHT22;5192;50.328;7.610;2023-07-29T05:59:39;19.00;99.90
10294;DHT22;5192;50.328;7.610;2023-07-29T06:02:07;19.00;99.90
10294;DHT22;5192;50.328;7.610;2023-07-29T06:04:34;18.90;99.90
10294;DHT22;5192;50.328;7.610;2023-07-29T06:07:03;18.90;99.90
10294;DHT22;5192;50.328;7.610;2023-07-29T06:09:30;18.90;99.90
10294;DHT22;5192;50.328;7.610;2023-07-29T06:11:57;18.90;99.90
10294;DHT22;5192;50.328;7.610;2023-07-29T06:14:23;19.00;99.90
10294;DHT22;5192;50.328;7.610;2023-07-29T06:16:50;19.00;99.90
10294;DHT22;5192;50.328;7.610;2023-07-29T06:19:18;18.90;99.90
10294;DHT22;5192;50.328;7.610;2023-07-29T06:21:45;18.90;99.90
10294;DHT22;5192;50.328;7.610;2023-07-29T06:24:12;18.90;99.90
10294;DHT22;5192;50.328;7.610;2023-07-29T06:26:40;18.90;99.90
10294;DHT22;5192;50.328;7.610;2023-07-29T06:29:06;18.90;99.90
10294;DHT22;5192;50.328;7.610;2023-07-29T06:31:32;18.90;99.90
10294;DHT22;5192;50.328;7.610;2023-07-29T06:33:58;18.90;99.90
10294;DHT22;5192;50.328;7.610;2023-07-29T06:36:25;18.90;99.90
10294;DHT22;5192;50.328;7.610;2023-07-29T06:38:53;18.90;99.90
10294;DHT22;5192;50.328;7.610;2023-07-29T06:41:20;19.00;99.90
10294;DHT22;5192;50.328;7.610;2023-07-29T06:43:45;19.00;99.90
10294;DHT22;5192;50.328;7.610;2023-07-29T06:46:11;19.10;99.90
10294;DHT22;5192;50.328;7.610;2023-07-29T06:48:39;19.10;99.90
10294;DHT22;5192;50.328;7.610;2023-07-29T06:51:07;19.20;99.90
10294;DHT22;5192;50.328;7.610;2023-07-29T06:53:35;19.20;99.90
10294;DHT22;5192;50.328;7.610;2023-07-29T06:56:02;19.30;99.90
10294;DHT22;5192;50.328;7.610;2023-07-29T06:58:29;19.40;99.90
10294;DHT22;5192;50.328;7.610;2023-07-29T07:00:55;19.40;99.90
10294;DHT22;5192;50.328;7.610;2023-07-29T07:03:23;19.40;99.90
10294;DHT22;5192;50.328;7.610;2023-07-29T07:05:51;19.40;99.90
10294;DHT22;5192;50.328;7.610;2023-07-29T07:08:19;19.40;99.90
10294;DHT22;5192;50.328;7.610;2023-07-29T07:10:47;19.30;99.90
10294;DHT22;5192;50.328;7.610;2023-07-29T07:13:15;19.50;99.90
10294;DHT22;5192;50.328;7.610;2023-07-29T07:15:42;19.60;99.90
10294;DHT22;5192;50.328;7.610;2023-07-29T07:18:09;19.60;99.90
10294;DHT22;5192;50.328;7.610;2023-07-29T07:20:36;19.80;99.90
10294;DHT22;5192;50.328;7.610;2023-07-29T07:23:02;20.00;99.90
10294;DHT22;5192;50.328;7.610;2023-07-29T07:25:31;20.20;99.90
10294;DHT22;5192;50.328;7.610;2023-07-29T07:27:58;20.30;99.90
10294;DHT22;5192;50.328;7.610;2023-07-29T07:30:25;20.20;99.90
10294;DHT22;5192;50.328;7.610;2023-07-29T07:32:53;20.20;99.90
10294;DHT22;5192;50.328;7.610;2023-07-29T07:35:20;20.30;99.90
10294;DHT22;5192;50.328;7.610;2023-07-29T07:37:47;20.30;99.90
10294;DHT22;5192;50.328;7.610;2023-07-29T07:40:14;20.20;99.90
10294;DHT22;5192;50.328;7.610;2023-07-29T07:42:40;20.30;99.90
10294;DHT22;5192;50.328;7.610;2023-07-29T07:45:06;20.30;99.90
10294;DHT22;5192;50.328;7.610;2023-07-29T07:47:34;20.40;99.90
10294;DHT22;5192;50.328;7.610;2023-07-29T07:49:59;20.40;99.90
10294;DHT22;5192;50.328;7.610;2023-07-29T07:52:28;20.60;97.00
10294;DHT22;5192;50.328;7.610;2023-07-29T07:54:54;20.70;98.10
10294;DHT22;5192;50.328;7.610;2023-07-29T07:57:22;20.80;72.20
10294;DHT22;5192;50.328;7.610;2023-07-29T07:59:48;21.00;83.10
10294;DHT22;5192;50.328;7.610;2023-07-29T08:02:14;21.20;91.00
10294;DHT22;5192;50.328;7.610;2023-07-29T08:04:41;21.30;81.30
10294;DHT22;5192;50.328;7.610;2023-07-29T08:07:09;21.40;79.10
10294;DHT22;5192;50.328;7.610;2023-07-29T08:09:37;21.40;84.60
10294;DHT22;5192;50.328;7.610;2023-07-29T08:12:02;21.40;87.20
10294;DHT22;5192;50.328;7.610;2023-07-29T08:14:31;21.40;88.90
10294;DHT22;5192;50.328;7.610;2023-07-29T08:16:59;21.20;86.50
10294;DHT22;5192;50.328;7.610;2023-07-29T08:19:27;21.40;84.40
10294;DHT22;5192;50.328;7.610;2023-07-29T08:21:53;21.40;82.40
10294;DHT22;5192;50.328;7.610;2023-07-29T08:24:20;21.60;93.80
10294;DHT22;5192;50.328;7.610;2023-07-29T08:26:46;21.70;77.50
10294;DHT22;5192;50.328;7.610;2023-07-29T08:29:13;21.60;73.50
10294;DHT22;5192;50.328;7.610;2023-07-29T08:31:39;21.90;77.30
10294;DHT22;5192;50.328;7.610;2023-07-29T08:34:07;21.80;61.60
10294;DHT22;5192;50.328;7.610;2023-07-29T08:36:34;21.80;51.80
10294;DHT22;5192;50.328;7.610;2023-07-29T08:39:02;21.90;54.60
10294;DHT22;5192;50.328;7.610;2023-07-29T08:44:26;21.70;50.00
10294;DHT22;5192;50.328;7.610;2023-07-29T08:46:55;21.80;46.70
10294;DHT22;5192;50.328;7.610;2023-07-29T08:49:25;21.70;60.10
10294;DHT22;5192;50.328;7.610;2023-07-29T08:52:01;21.70;69.60
10294;DHT22;5192;50.328;7.610;2023-07-29T08:54:29;21.60;59.90
10294;DHT22;5192;50.328;7.610;2023-07-29T08:56:55;21.50;70.70
10294;DHT22;5192;50.328;7.610;2023-07-29T08:59:22;21.40;69.00
10294;DHT22;5192;50.328;7.610;2023-07-29T09:01:51;21.30;70.50
10294;DHT22;5192;50.328;7.610;2023-07-29T09:04:20;21.30;75.40
10294;DHT22;5192;50.328;7.610;2023-07-29T09:06:56;21.00;66.00
10294;DHT22;5192;50.328;7.610;2023-07-29T09:09:22;21.10;65.00
10294;DHT22;5192;50.328;7.610;2023-07-29T09:11:50;21.20;68.30
10294;DHT22;5192;50.328;7.610;2023-07-29T09:14:17;21.00;67.70
10294;DHT22;5192;50.328;7.610;2023-07-29T09:16:45;21.00;73.30
10294;DHT22;5192;50.328;7.610;2023-07-29T09:19:12;20.80;70.10
10294;DHT22;5192;50.328;7.610;2023-07-29T09:21:39;20.30;77.60
10294;DHT22;5192;50.328;7.610;2023-07-29T09:24:06;20.00;85.70
10294;DHT22;5192;50.328;7.610;2023-07-29T09:26:35;19.80;94.70
10294;DHT22;5192;50.328;7.610;2023-07-29T09:29:03;19.70;99.90
10294;DHT22;5192;50.328;7.610;2023-07-29T09:31:30;19.60;99.90
10294;DHT22;5192;50.328;7.610;2023-07-29T09:36:45;19.50;98.40
10294;DHT22;5192;50.328;7.610;2023-07-29T09:39:12;19.60;91.50
10294;DHT22;5192;50.328;7.610;2023-07-29T09:41:48;19.70;92.00
10294;DHT22;5192;50.328;7.610;2023-07-29T09:44:17;19.80;90.90
10294;DHT22;5192;50.328;7.610;2023-07-29T09:46:46;19.80;81.10
10294;DHT22;5192;50.328;7.610;2023-07-29T09:49:12;19.90;84.00
10294;DHT22;5192;50.328;7.610;2023-07-29T09:51:39;20.00;81.50
10294;DHT22;5192;50.328;7.610;2023-07-29T09:54:08;20.10;85.90
10294;DHT22;5192;50.328;7.610;2023-07-29T09:56:39;20.20;81.00
10294;DHT22;5192;50.328;7.610;2023-07-29T09:59:07;20.30;81.10
10294;DHT22;5192;50.328;7.610;2023-07-29T10:01:34;20.20;77.80
10294;DHT22;5192;50.328;7.610;2023-07-29T10:04:03;20.20;80.50
10294;DHT22;5192;50.328;7.610;2023-07-29T10:06:34;20.10;88.90
10294;DHT22;5192;50.328;7.610;2023-07-29T10:09:03;19.90;94.50
10294;DHT22;5192;50.328;7.610;2023-07-29T10:11:32;19.80;99.90
10294;DHT22;5192;50.328;7.610;2023-07-29T10:14:00;19.70;99.90
10294;DHT22;5192;50.328;7.610;2023-07-29T10:16:28;19.70;99.90
10294;DHT22;5192;50.328;7.610;2023-07-29T10:18:58;19.70;99.90
10294;DHT22;5192;50.328;7.610;2023-07-29T10:21:25;19.80;95.20
10294;DHT22;5192;50.328;7.610;2023-07-29T10:23:57;19.90;97.00
10294;DHT22;5192;50.328;7.610;2023-07-29T10:26:29;20.10;86.20
10294;DHT22;5192;50.328;7.610;2023-07-29T10:29:00;20.30;90.90
10294;DHT22;5192;50.328;7.610;2023-07-29T10:31:32;20.60;80.50
10294;DHT22;5192;50.328;7.610;2023-07-29T10:34:02;20.90;83.90
10294;DHT22;5192;50.328;7.610;2023-07-29T10:36:30;21.10;62.00
10294;DHT22;5192;50.328;7.610;2023-07-29T10:38:57;21.10;58.80
10294;DHT22;5192;50.328;7.610;2023-07-29T10:42:01;21.20;62.50
10294;DHT22;5192;50.328;7.610;2023-07-29T10:44:55;21.40;78.10
10294;DHT22;5192;50.328;7.610;2023-07-29T10:47:39;21.60;52.00
10294;DHT22;5192;50.328;7.610;2023-07-29T10:50:21;21.70;57.50
10294;DHT22;5192;50.328;7.610;2023-07-29T10:52:52;21.90;58.30
10294;DHT22;5192;50.328;7.610;2023-07-29T10:55:43;22.10;51.30
10294;DHT22;5192;50.328;7.610;2023-07-29T10:58:13;22.30;46.30
10294;DHT22;5192;50.328;7.610;2023-07-29T11:00:45;22.20;36.00
10294;DHT22;5192;50.328;7.610;2023-07-29T11:03:13;22.40;34.20
10294;DHT22;5192;50.328;7.610;2023-07-29T11:05:53;22.60;37.50
10294;DHT22;5192;50.328;7.610;2023-07-29T11:08:31;22.80;18.80
10294;DHT22;5192;50.328;7.610;2023-07-29T11:13:27;23.20;9.00
10294;DHT22;5192;50.328;7.610;2023-07-29T11:15:56;23.20;9.90
10294;DHT22;5192;50.328;7.610;2023-07-29T11:18:35;23.50;5.70
10294;DHT22;5192;50.328;7.610;2023-07-29T11:21:04;23.60;5.80
10294;DHT22;5192;50.328;7.610;2023-07-29T11:23:33;23.80;8.60
10294;DHT22;5192;50.328;7.610;2023-07-29T11:26:00;23.90;9.10
10294;DHT22;5192;50.328;7.610;2023-07-29T11:28:29;24.20;6.50
10294;DHT22;5192;50.328;7.610;2023-07-29T11:30:59;24.40;8.10
10294;DHT22;5192;50.328;7.610;2023-07-29T11:33:27;24.50;1.00
10294;DHT22;5192;50.328;7.610;2023-07-29T11:35:56;24.70;1.00
10294;DHT22;5192;50.328;7.610;2023-07-29T11:38:29;24.90;1.00
10294;DHT22;5192;50.328;7.610;2023-07-29T11:41:00;24.80;1.00
10294;DHT22;5192;50.328;7.610;2023-07-29T11:43:35;24.80;1.00
10294;DHT22;5192;50.328;7.610;2023-07-29T11:46:02;25.10;1.00
10294;DHT22;5192;50.328;7.610;2023-07-29T11:48:33;25.40;1.00
10294;DHT22;5192;50.328;7.610;2023-07-29T11:51:02;25.50;1.00
10294;DHT22;5192;50.328;7.610;2023-07-29T11:53:32;25.70;1.00
10294;DHT22;5192;50.328;7.610;2023-07-29T11:55:59;25.80;1.00
10294;DHT22;5192;50.328;7.610;2023-07-29T11:58:27;25.80;1.00
10294;DHT22;5192;50.328;7.610;2023-07-29T12:00:55;25.70;1.00
10294;DHT22;5192;50.328;7.610;2023-07-29T12:03:22;25.50;1.00
10294;DHT22;5192;50.328;7.610;2023-07-29T12:05:49;25.30;3.20
10294;DHT22;5192;50.328;7.610;2023-07-29T12:08:17;25.10;1.00
10294;DHT22;5192;50.328;7.610;2023-07-29T12:10:45;25.00;4.00
10294;DHT22;5192;50.328;7.610;2023-07-29T12:13:13;24.80;4.50
10294;DHT22;5192;50.328;7.610;2023-07-29T12:15:42;24.80;3.60
10294;DHT22;5192;50.328;7.610;2023-07-29T12:18:09;25.10;2.20
10294;DHT22;5192;50.328;7.610;2023-07-29T12:20:36;25.20;1.00
10294;DHT22;5192;50.328;7.610;2023-07-29T12:23:03;25.10;1.00
10294;DHT22;5192;50.328;7.610;2023-07-29T12:25:33;25.10;1.00
10294;DHT22;5192;50.328;7.610;2023-07-29T12:28:05;25.30;1.00
10294;DHT22;5192;50.328;7.610;2023-07-29T12:30:41;25.10;1.00
10294;DHT22;5192;50.328;7.610;2023-07-29T12:33:07;25.20;1.00
10294;DHT22;5192;50.328;7.610;2023-07-29T12:35:36;25.40;1.00
10294;DHT22;5192;50.328;7.610;2023-07-29T12:38:03;25.60;1.00
10294;DHT22;5192;50.328;7.610;2023-07-29T12:40:29;25.50;1.00
10294;DHT22;5192;50.328;7.610;2023-07-29T12:42:58;25.70;1.00
10294;DHT22;5192;50.328;7.610;2023-07-29T12:45:25;26.00;1.00
10294;DHT22;5192;50.328;7.610;2023-07-29T12:47:55;26.10;1.00
10294;DHT22;5192;50.328;7.610;2023-07-29T12:50:22;26.30;1.00
10294;DHT22;5192;50.328;7.610;2023-07-29T12:52:50;26.50;1.00
10294;DHT22;5192;50.328;7.610;2023-07-29T12:55:17;26.40;1.00
10294;DHT22;5192;50.328;7.610;2023-07-29T12:57:43;26.20;1.00
10294;DHT22;5192;50.328;7.610;2023-07-29T13:00:11;26.20;1.00
10294;DHT22;5192;50.328;7.610;2023-07-29T13:02:39;25.80;1.00
10294;DHT22;5192;50.328;7.610;2023-07-29T13:05:08;25.70;1.00
10294;DHT22;5192;50.328;7.610;2023-07-29T13:07:40;25.60;1.00
10294;DHT22;5192;50.328;7.610;2023-07-29T13:10:11;25.50;1.00
10294;DHT22;5192;50.328;7.610;2023-07-29T13:12:39;25.20;1.00
10294;DHT22;5192;50.328;7.610;2023-07-29T13:15:05;24.90;1.00
10294;DHT22;5192;50.328;7.610;2023-07-29T13:17:33;24.90;1.00
10294;DHT22;5192;50.328;7.610;2023-07-29T13:20:00;24.80;1.00
10294;DHT22;5192;50.328;7.610;2023-07-29T13:22:26;24.70;1.00
10294;DHT22;5192;50.328;7.610;2023-07-29T13:24:53;24.70;1.00
10294;DHT22;5192;50.328;7.610;2023-07-29T13:27:21;24.70;1.00
10294;DHT22;5192;50.328;7.610;2023-07-29T13:29:50;24.80;1.00
10294;DHT22;5192;50.328;7.610;2023-07-29T13:32:17;24.80;1.00
10294;DHT22;5192;50.328;7.610;2023-07-29T13:34:42;24.60;1.00
10294;DHT22;5192;50.328;7.610;2023-07-29T13:37:10;24.50;1.00
10294;DHT22;5192;50.328;7.610;2023-07-29T13:39:38;24.50;1.00
10294;DHT22;5192;50.328;7.610;2023-07-29T13:42:05;24.50;1.00
10294;DHT22;5192;50.328;7.610;2023-07-29T13:44:33;24.40;1.00
10294;DHT22;5192;50.328;7.610;2023-07-29T13:46:59;24.30;1.00
10294;DHT22;5192;50.328;7.610;2023-07-29T13:49:27;24.30;1.90
10294;DHT22;5192;50.328;7.610;2023-07-29T13:51:53;24.40;1.00
10294;DHT22;5192;50.328;7.610;2023-07-29T13:54:20;24.40;1.00
10294;DHT22;5192;50.328;7.610;2023-07-29T13:56:48;24.50;1.00
10294;DHT22;5192;50.328;7.610;2023-07-29T13:59:17;24.70;1.20
10294;DHT22;5192;50.328;7.610;2023-07-29T14:01:44;24.70;2.40
10294;DHT22;5192;50.328;7.610;2023-07-29T14:04:11;24.70;1.00
10294;DHT22;5192;50.328;7.610;2023-07-29T14:06:36;24.60;1.00
10294;DHT22;5192;50.328;7.610;2023-07-29T14:09:03;24.60;1.00
10294;DHT22;5192;50.328;7.610;2023-07-29T14:11:30;24.60;2.40
10294;DHT22;5192;50.328;7.610;2023-07-29T14:13:57;24.50;6.30
10294;DHT22;5192;50.328;7.610;2023-07-29T14:16:24;24.50;4.60
10294;DHT22;5192;50.328;7.610;2023-07-29T14:18:51;24.40;1.40
10294;DHT22;5192;50.328;7.610;2023-07-29T14:21:18;24.60;1.00
10294;DHT22;5192;50.328;7.610;2023-07-29T14:23:45;24.90;5.20
10294;DHT22;5192;50.328;7.610;2023-07-29T14:26:12;25.70;1.00
10294;DHT22;5192;50.328;7.610;2023-07-29T14:28:40;26.50;1.00
10294;DHT22;5192;50.328;7.610;2023-07-29T14:31:08;27.80;1.00
10294;DHT22;5192;50.328;7.610;2023-07-29T14:33:34;29.10;1.00
10294;DHT22;5192;50.328;7.610;2023-07-29T14:36:00;30.10;1.00
10294;DHT22;5192;50.328;7.610;2023-07-29T14:38:29;30.80;1.00
10294;DHT22;5192;50.328;7.610;2023-07-29T14:40:58;30.60;1.00
10294;DHT22;5192;50.328;7.610;2023-07-29T14:43:24;30.10;1.00
10294;DHT22;5192;50.328;7.610;2023-07-29T14:45:51;30.10;1.00
10294;DHT22;5192;50.328;7.610;2023-07-29T14:48:19;30.10;1.00
10294;DHT22;5192;50.328;7.610;2023-07-29T14:50:47;30.80;1.00
10294;DHT22;5192;50.328;7.610;2023-07-29T14:53:14;30.50;1.00
10294;DHT22;5192;50.328;7.610;2023-07-29T14:55:41;30.70;1.00
10294;DHT22;5192;50.328;7.610;2023-07-29T14:58:08;30.80;1.00
10294;DHT22;5192;50.328;7.610;2023-07-29T15:00:35;30.40;1.00
10294;DHT22;5192;50.328;7.610;2023-07-29T15:03:02;30.20;1.00
10294;DHT22;5192;50.328;7.610;2023-07-29T15:05:30;30.40;1.00
10294;DHT22;5192;50.328;7.610;2023-07-29T15:07:57;30.60;1.00
10294;DHT22;5192;50.328;7.610;2023-07-29T15:10:24;30.40;1.00
10294;DHT22;5192;50.328;7.610;2023-07-29T15:12:52;29.70;1.00
10294;DHT22;5192;50.328;7.610;2023-07-29T15:15:19;29.90;1.00
10294;DHT22;5192;50.328;7.610;2023-07-29T15:17:46;30.40;1.00
10294;DHT22;5192;50.328;7.610;2023-07-29T15:20:12;30.20;1.00
10294;DHT22;5192;50.328;7.610;2023-07-29T15:22:39;30.10;1.00
10294;DHT22;5192;50.328;7.610;2023-07-29T15:25:08;30.10;1.00
10294;DHT22;5192;50.328;7.610;2023-07-29T15:27:34;30.70;1.00
10294;DHT22;5192;50.328;7.610;2023-07-29T15:30:08;30.60;1.00
10294;DHT22;5192;50.328;7.610;2023-07-29T15:32:35;30.70;1.00
10294;DHT22;5192;50.328;7.610;2023-07-29T15:35:01;30.10;1.00
10294;DHT22;5192;50.328;7.610;2023-07-29T15:37:30;29.20;1.00
10294;DHT22;5192;50.328;7.610;2023-07-29T15:39:57;28.70;1.00
10294;DHT22;5192;50.328;7.610;2023-07-29T15:42:24;28.30;1.00
10294;DHT22;5192;50.328;7.610;2023-07-29T15:44:52;28.00;1.00
10294;DHT22;5192;50.328;7.610;2023-07-29T15:47:23;27.50;1.00
10294;DHT22;5192;50.328;7.610;2023-07-29T15:49:50;27.20;1.00
10294;DHT22;5192;50.328;7.610;2023-07-29T15:52:17;26.90;1.00
10294;DHT22;5192;50.328;7.610;2023-07-29T15:54:44;26.70;1.00
10294;DHT22;5192;50.328;7.610;2023-07-29T15:57:11;26.50;1.00
10294;DHT22;5192;50.328;7.610;2023-07-29T15:59:39;26.20;1.00
10294;DHT22;5192;50.328;7.610;2023-07-29T16:02:08;26.10;1.00
10294;DHT22;5192;50.328;7.610;2023-07-29T16:04:35;26.40;1.00
10294;DHT22;5192;50.328;7.610;2023-07-29T16:07:01;26.60;1.00
10294;DHT22;5192;50.328;7.610;2023-07-29T16:09:27;26.80;1.00
10294;DHT22;5192;50.328;7.610;2023-07-29T16:11:53;27.00;1.00
10294;DHT22;5192;50.328;7.610;2023-07-29T16:14:21;26.50;1.00